PAF5011 RPMZ-RPVM
Flight info
| Callsign | PAF5011 |
|---|---|
| Flight time | N/A |
| Altitude | 19000 |
| Route | PARAL1E PARAL G578 ALDIN ALDIN3P |
| Aircraft | C130/M-SDFGY/S |
Departure
| Time | 2026-04-18 05:11 |
|---|---|
| Airport | Zamboanga International Airport (RPMZ) |
Arrival
| Time | N/A |
|---|---|
| Airport | Mactan Cebu International Airport (RPVM) |
| Time | Latitude | Longitude | Altitude | Speed | Heading |
|---|---|---|---|---|---|
| 2026-04-18 04:50 | 6.92286 | 122.07134 | 37 ft | 0 kts | 275° |
| 2026-04-18 04:58 | 6.92286 | 122.07135 | 37 ft | 0 kts | 275° |
| 2026-04-18 05:03 | 6.92287 | 122.07133 | 37 ft | 1 kts | 277° |
| 2026-04-18 05:03 | 6.92280 | 122.07110 | 36 ft | 6 kts | 225° |
| 2026-04-18 05:04 | 6.92232 | 122.07095 | 38 ft | 9 kts | 187° |
| 2026-04-18 05:04 | 6.92176 | 122.07067 | 37 ft | 11 kts | 251° |
| 2026-04-18 05:04 | 6.92176 | 122.06976 | 37 ft | 15 kts | 274° |
| 2026-04-18 05:04 | 6.92183 | 122.06861 | 37 ft | 18 kts | 274° |
| 2026-04-18 05:05 | 6.92192 | 122.06731 | 38 ft | 20 kts | 273° |
| 2026-04-18 05:05 | 6.92201 | 122.06587 | 38 ft | 22 kts | 273° |
| 2026-04-18 05:05 | 6.92211 | 122.06427 | 37 ft | 24 kts | 274° |
| 2026-04-18 05:05 | 6.92222 | 122.06270 | 38 ft | 20 kts | 274° |
| 2026-04-18 05:06 | 6.92231 | 122.06126 | 38 ft | 22 kts | 273° |
| 2026-04-18 05:06 | 6.92242 | 122.05968 | 37 ft | 23 kts | 274° |
| 2026-04-18 05:06 | 6.92252 | 122.05808 | 38 ft | 20 kts | 273° |
| 2026-04-18 05:06 | 6.92261 | 122.05664 | 38 ft | 22 kts | 273° |
| 2026-04-18 05:07 | 6.92273 | 122.05503 | 38 ft | 23 kts | 274° |
| 2026-04-18 05:07 | 6.92284 | 122.05338 | 38 ft | 21 kts | 274° |
| 2026-04-18 05:07 | 6.92293 | 122.05188 | 38 ft | 22 kts | 273° |
| 2026-04-18 05:07 | 6.92303 | 122.05032 | 38 ft | 19 kts | 274° |
| 2026-04-18 05:08 | 6.92313 | 122.04910 | 38 ft | 17 kts | 275° |
| 2026-04-18 05:08 | 6.92335 | 122.04831 | 37 ft | 10 kts | 297° |
| 2026-04-18 05:08 | 6.92322 | 122.04804 | 36 ft | 4 kts | 134° |
| 2026-04-18 05:08 | 6.92316 | 122.04824 | 37 ft | 0 kts | 91° |
| 2026-04-18 05:10 | 6.92305 | 122.04996 | 38 ft | 61 kts | 94° |
| 2026-04-18 05:10 | 6.92260 | 122.05641 | 107 ft | 116 kts | 95° |
| 2026-04-18 05:10 | 6.92197 | 122.06548 | 441 ft | 142 kts | 95° |
| 2026-04-18 05:11 | 6.92113 | 122.07595 | 822 ft | 160 kts | 94° |
| 2026-04-18 05:11 | 6.92042 | 122.08757 | 1135 ft | 172 kts | 93° |
| 2026-04-18 05:11 | 6.91954 | 122.09998 | 1243 ft | 182 kts | 96° |
| 2026-04-18 05:11 | 6.91884 | 122.11267 | 1482 ft | 180 kts | 90° |
| 2026-04-18 05:12 | 6.92338 | 122.12408 | 1706 ft | 180 kts | 45° |
| 2026-04-18 05:12 | 6.93423 | 122.13014 | 1993 ft | 179 kts | 24° |
| 2026-04-18 05:12 | 6.94580 | 122.13477 | 2291 ft | 181 kts | 21° |
| 2026-04-18 05:12 | 6.95780 | 122.13910 | 2589 ft | 186 kts | 20° |
| 2026-04-18 05:13 | 6.97003 | 122.14345 | 2895 ft | 191 kts | 20° |
| 2026-04-18 05:13 | 6.98264 | 122.14787 | 3203 ft | 193 kts | 20° |
| 2026-04-18 05:13 | 6.99532 | 122.15232 | 3500 ft | 193 kts | 20° |
| 2026-04-18 05:13 | 7.00806 | 122.15687 | 3813 ft | 194 kts | 20° |
| 2026-04-18 05:14 | 7.02083 | 122.16147 | 4127 ft | 195 kts | 20° |
| 2026-04-18 05:14 | 7.03359 | 122.16618 | 4437 ft | 196 kts | 21° |
| 2026-04-18 05:14 | 7.04641 | 122.17097 | 4758 ft | 197 kts | 20° |
| 2026-04-18 05:14 | 7.05927 | 122.17577 | 5070 ft | 197 kts | 20° |
| 2026-04-18 05:15 | 7.07219 | 122.18059 | 5386 ft | 198 kts | 20° |
| 2026-04-18 05:15 | 7.08517 | 122.18541 | 5708 ft | 199 kts | 20° |
| 2026-04-18 05:15 | 7.09823 | 122.19029 | 6021 ft | 201 kts | 20° |
| 2026-04-18 05:15 | 7.11138 | 122.19519 | 6314 ft | 203 kts | 20° |
| 2026-04-18 05:16 | 7.12469 | 122.20014 | 6584 ft | 205 kts | 20° |
| 2026-04-18 05:16 | 7.13812 | 122.20516 | 6862 ft | 207 kts | 20° |
| 2026-04-18 05:16 | 7.15167 | 122.21022 | 7142 ft | 208 kts | 20° |
| 2026-04-18 05:16 | 7.16530 | 122.21530 | 7430 ft | 210 kts | 20° |
| 2026-04-18 05:17 | 7.17901 | 122.22044 | 7715 ft | 211 kts | 20° |
| 2026-04-18 05:17 | 7.19283 | 122.22559 | 8013 ft | 212 kts | 20° |
| 2026-04-18 05:17 | 7.20673 | 122.23077 | 8306 ft | 214 kts | 21° |
| 2026-04-18 05:17 | 7.22070 | 122.23601 | 8605 ft | 215 kts | 20° |
| 2026-04-18 05:18 | 7.23475 | 122.24124 | 8909 ft | 216 kts | 21° |
| 2026-04-18 05:18 | 7.24888 | 122.24652 | 9218 ft | 217 kts | 21° |
| 2026-04-18 05:18 | 7.26291 | 122.25175 | 9531 ft | 218 kts | 20° |
| 2026-04-18 05:18 | 7.27709 | 122.25728 | 9845 ft | 219 kts | 24° |
| 2026-04-18 05:19 | 7.29094 | 122.26382 | 10122 ft | 220 kts | 27° |
| 2026-04-18 05:19 | 7.30446 | 122.27077 | 10416 ft | 221 kts | 28° |
| 2026-04-18 05:19 | 7.31805 | 122.27804 | 10709 ft | 221 kts | 29° |
| 2026-04-18 05:19 | 7.33153 | 122.28549 | 11017 ft | 222 kts | 30° |
| 2026-04-18 05:20 | 7.34503 | 122.29306 | 11327 ft | 222 kts | 30° |
| 2026-04-18 05:20 | 7.35851 | 122.30065 | 11632 ft | 222 kts | 30° |
| 2026-04-18 05:20 | 7.37199 | 122.30830 | 11936 ft | 222 kts | 30° |
| 2026-04-18 05:20 | 7.38548 | 122.31594 | 12245 ft | 223 kts | 30° |
| 2026-04-18 05:21 | 7.39901 | 122.32360 | 12570 ft | 223 kts | 30° |
| 2026-04-18 05:21 | 7.41253 | 122.33126 | 12895 ft | 224 kts | 30° |
| 2026-04-18 05:21 | 7.42612 | 122.33895 | 13244 ft | 224 kts | 30° |
| 2026-04-18 05:21 | 7.43966 | 122.34667 | 13557 ft | 224 kts | 30° |
| 2026-04-18 05:22 | 7.45323 | 122.35438 | 13866 ft | 224 kts | 30° |
| 2026-04-18 05:22 | 7.46681 | 122.36211 | 14135 ft | 224 kts | 30° |
| 2026-04-18 05:22 | 7.48042 | 122.36983 | 14405 ft | 225 kts | 30° |
| 2026-04-18 05:22 | 7.49407 | 122.37758 | 14669 ft | 225 kts | 30° |
| 2026-04-18 05:23 | 7.50768 | 122.38529 | 14923 ft | 225 kts | 30° |
| 2026-04-18 05:23 | 7.52141 | 122.39308 | 15203 ft | 226 kts | 30° |
| 2026-04-18 05:23 | 7.53511 | 122.40084 | 15473 ft | 226 kts | 29° |
| 2026-04-18 05:23 | 7.54889 | 122.40864 | 15738 ft | 227 kts | 29° |
| 2026-04-18 05:24 | 7.56266 | 122.41645 | 16002 ft | 228 kts | 29° |
| 2026-04-18 05:24 | 7.57650 | 122.42429 | 16255 ft | 228 kts | 29° |
| 2026-04-18 05:24 | 7.59036 | 122.43215 | 16518 ft | 229 kts | 29° |
| 2026-04-18 05:24 | 7.60406 | 122.43993 | 16790 ft | 229 kts | 29° |
| 2026-04-18 05:25 | 7.61796 | 122.44781 | 17069 ft | 230 kts | 29° |
| 2026-04-18 05:25 | 7.63190 | 122.45569 | 17328 ft | 230 kts | 28° |
| 2026-04-18 05:25 | 7.64585 | 122.46359 | 17583 ft | 230 kts | 28° |
| 2026-04-18 05:25 | 7.65982 | 122.47151 | 17846 ft | 230 kts | 28° |
| 2026-04-18 05:26 | 7.67379 | 122.47942 | 18105 ft | 231 kts | 28° |
| 2026-04-18 05:26 | 7.68776 | 122.48735 | 18325 ft | 231 kts | 28° |
| 2026-04-18 05:26 | 7.70180 | 122.49532 | 18552 ft | 231 kts | 28° |
| 2026-04-18 05:26 | 7.71581 | 122.50325 | 18751 ft | 232 kts | 28° |
| 2026-04-18 05:27 | 7.73008 | 122.51135 | 18809 ft | 240 kts | 28° |
| 2026-04-18 05:27 | 7.74527 | 122.51995 | 18837 ft | 261 kts | 28° |
| 2026-04-18 05:27 | 7.76167 | 122.52924 | 18865 ft | 276 kts | 28° |
| 2026-04-18 05:27 | 7.77838 | 122.53872 | 18881 ft | 275 kts | 28° |
| 2026-04-18 05:28 | 7.79505 | 122.54818 | 18883 ft | 276 kts | 28° |
| 2026-04-18 05:28 | 7.80614 | 122.55447 | 18882 ft | 276 kts | 28° |
| 2026-04-18 05:28 | 7.82851 | 122.56714 | 18885 ft | 276 kts | 28° |
| 2026-04-18 05:28 | 7.83959 | 122.57342 | 18887 ft | 276 kts | 29° |
| 2026-04-18 05:29 | 7.85635 | 122.58291 | 18886 ft | 276 kts | 28° |
| 2026-04-18 05:29 | 7.87313 | 122.59242 | 18882 ft | 277 kts | 28° |
| 2026-04-18 05:29 | 7.88991 | 122.60194 | 18884 ft | 277 kts | 28° |